createdAt,value
2018-10-04T00:00:15.741Z,5.30
2018-10-04T00:01:15.727Z,6.70
2018-10-04T00:02:15.727Z,8.30
2018-10-04T00:03:15.717Z,9.00
2018-10-04T00:04:15.709Z,6.50
2018-10-04T00:05:15.704Z,8.10
2018-10-04T00:06:15.697Z,6.00
2018-10-04T00:07:15.689Z,6.00
2018-10-04T00:08:15.685Z,7.50
2018-10-04T00:09:15.680Z,6.90
2018-10-04T00:10:15.674Z,6.10
2018-10-04T00:11:15.667Z,10.20
2018-10-04T00:12:15.658Z,8.20
2018-10-04T00:13:15.653Z,9.40
2018-10-04T00:14:15.649Z,8.90
2018-10-04T00:15:15.640Z,5.40
2018-10-04T00:16:15.636Z,6.40
2018-10-04T00:17:15.626Z,7.00
2018-10-04T00:18:15.619Z,8.90
2018-10-04T00:19:15.616Z,7.50
2018-10-04T00:20:15.612Z,9.10
2018-10-04T00:21:15.596Z,9.50
2018-10-04T00:22:15.595Z,9.30
2018-10-04T00:23:15.591Z,7.60
2018-10-04T00:24:15.583Z,7.50
2018-10-04T00:25:15.574Z,9.10
2018-10-04T00:26:15.568Z,9.30
2018-10-04T00:27:15.564Z,6.80
2018-10-04T00:28:15.554Z,7.20
2018-10-04T00:29:15.550Z,11.10
2018-10-04T00:30:15.559Z,10.30
2018-10-04T00:31:15.550Z,9.30
2018-10-04T00:32:15.531Z,9.90
2018-10-04T00:33:15.524Z,6.00
2018-10-04T00:34:15.518Z,7.90
2018-10-04T00:35:15.514Z,8.20
2018-10-04T00:36:15.505Z,7.90
2018-10-04T00:37:15.504Z,7.60
2018-10-04T00:38:15.491Z,8.80
2018-10-04T00:39:15.492Z,7.00
2018-10-04T00:40:15.486Z,8.10
2018-10-04T00:41:15.476Z,8.30
2018-10-04T00:42:15.471Z,7.00
2018-10-04T00:43:15.460Z,6.30
2018-10-04T00:44:15.455Z,8.00
2018-10-04T00:45:15.448Z,8.60
2018-10-04T00:46:15.444Z,5.30
2018-10-04T00:47:15.443Z,7.30
2018-10-04T00:48:15.441Z,8.60
2018-10-04T00:49:15.429Z,7.00
2018-10-04T00:50:15.418Z,7.30
2018-10-04T00:51:15.413Z,7.90
2018-10-04T00:52:15.407Z,6.40
2018-10-04T00:53:15.402Z,8.30
2018-10-04T00:54:15.394Z,5.00
2018-10-04T00:55:15.398Z,8.20
2018-10-04T00:56:15.381Z,7.70
2018-10-04T00:57:15.375Z,8.80
2018-10-04T00:58:15.364Z,9.70
2018-10-04T00:59:15.362Z,8.00
2018-10-04T01:00:15.353Z,7.60
2018-10-04T01:01:15.348Z,7.60
2018-10-04T01:02:15.343Z,8.50
2018-10-04T01:03:15.336Z,7.10
2018-10-04T01:04:15.328Z,7.10
2018-10-04T01:05:15.410Z,9.20
2018-10-04T01:06:15.318Z,9.50
2018-10-04T01:07:15.312Z,8.00
2018-10-04T01:08:15.306Z,7.70
2018-10-04T01:09:15.297Z,7.90
2018-10-04T01:10:15.297Z,8.70
2018-10-04T01:11:15.286Z,10.10
2018-10-04T01:12:15.293Z,8.10
2018-10-04T01:13:15.273Z,6.40
2018-10-04T01:14:15.265Z,9.50
2018-10-04T01:15:15.258Z,8.10
2018-10-04T01:16:15.265Z,7.60
2018-10-04T01:17:15.249Z,8.10
2018-10-04T01:18:15.244Z,9.10
2018-10-04T01:19:15.238Z,8.70
2018-10-04T01:20:15.235Z,6.50
2018-10-04T01:21:15.227Z,10.00
2018-10-04T01:22:15.217Z,9.50
2018-10-04T01:23:15.212Z,9.30
2018-10-04T01:24:15.210Z,11.30
2018-10-04T01:25:15.197Z,10.20
2018-10-04T01:26:15.192Z,7.70
2018-10-04T01:27:15.189Z,7.80
2018-10-04T01:28:15.185Z,9.60
2018-10-04T01:29:15.168Z,6.00
2018-10-04T01:30:15.167Z,9.20
2018-10-04T01:31:15.219Z,6.90
2018-10-04T01:32:15.159Z,8.20
2018-10-04T01:33:15.155Z,9.10
2018-10-04T01:34:15.144Z,10.70
2018-10-04T01:35:15.138Z,9.40
2018-10-04T01:36:15.131Z,9.50
2018-10-04T01:37:15.120Z,10.20
2018-10-04T01:38:15.121Z,8.10
2018-10-04T01:39:15.112Z,6.80
2018-10-04T01:40:15.107Z,8.80
2018-10-04T01:41:15.097Z,9.70
2018-10-04T01:42:15.095Z,8.40
2018-10-04T01:43:15.094Z,8.70
2018-10-04T01:44:15.085Z,9.40
2018-10-04T01:45:15.070Z,8.60
2018-10-04T01:46:15.064Z,9.70
2018-10-04T01:47:15.064Z,10.30
2018-10-04T01:48:15.056Z,8.20
2018-10-04T01:49:15.049Z,8.30
2018-10-04T01:50:15.069Z,8.00
2018-10-04T01:51:15.039Z,9.20
2018-10-04T01:52:15.030Z,8.40
2018-10-04T01:53:15.023Z,9.60
2018-10-04T01:54:15.017Z,7.70
2018-10-04T01:55:15.010Z,9.40
2018-10-04T01:56:15.003Z,8.80
2018-10-04T01:57:14.994Z,7.20
2018-10-04T01:58:14.994Z,10.70
2018-10-04T01:59:14.986Z,10.50
2018-10-04T02:00:14.985Z,7.10
2018-10-04T02:01:14.971Z,8.20
2018-10-04T02:02:14.964Z,7.90
2018-10-04T02:03:14.960Z,8.30
2018-10-04T02:04:14.951Z,8.70
2018-10-04T02:05:14.945Z,7.20
2018-10-04T02:06:14.942Z,7.10
2018-10-04T02:07:14.934Z,7.90
2018-10-04T02:08:14.930Z,8.30
2018-10-04T02:09:14.927Z,10.40
2018-10-04T02:10:14.918Z,8.70
2018-10-04T02:11:14.909Z,8.80
2018-10-04T02:12:14.900Z,8.80
2018-10-04T02:13:14.900Z,7.90
2018-10-04T02:14:14.891Z,12.10
2018-10-04T02:15:14.884Z,8.10
2018-10-04T02:16:14.881Z,10.30
2018-10-04T02:17:14.874Z,9.60
2018-10-04T02:18:14.864Z,8.50
2018-10-04T02:19:14.863Z,9.80
2018-10-04T02:20:14.853Z,11.20
2018-10-04T02:21:14.849Z,7.30
2018-10-04T02:22:14.841Z,8.10
2018-10-04T02:23:14.833Z,8.10
2018-10-04T02:24:14.828Z,10.50
2018-10-04T02:25:14.821Z,7.60
2018-10-04T02:26:14.816Z,10.90
2018-10-04T02:27:14.809Z,9.80
2018-10-04T02:28:14.803Z,8.80
2018-10-04T02:29:14.796Z,7.80
2018-10-04T02:30:14.793Z,9.10
2018-10-04T02:31:14.783Z,7.50
2018-10-04T02:32:14.781Z,7.90
2018-10-04T02:33:14.770Z,9.30
2018-10-04T02:34:14.766Z,8.30
2018-10-04T02:35:14.761Z,10.50
2018-10-04T02:36:14.753Z,9.80
2018-10-04T02:37:14.753Z,10.00
2018-10-04T02:38:14.749Z,10.90
2018-10-04T02:39:14.733Z,8.60
2018-10-04T02:40:14.734Z,9.40
2018-10-04T02:41:14.722Z,10.00
2018-10-04T02:42:14.714Z,10.30
2018-10-04T02:43:14.707Z,9.90
2018-10-04T02:44:14.706Z,8.80
2018-10-04T02:45:14.700Z,8.70
2018-10-04T02:46:14.685Z,8.90
2018-10-04T02:47:14.685Z,13.20
2018-10-04T02:48:14.676Z,9.20
2018-10-04T02:49:14.668Z,9.80
2018-10-04T02:50:14.668Z,8.90
2018-10-04T02:51:14.661Z,9.00
2018-10-04T02:52:14.651Z,10.70
2018-10-04T02:53:14.645Z,9.80
2018-10-04T02:54:14.642Z,11.20
2018-10-04T02:55:14.634Z,10.40
2018-10-04T02:56:14.625Z,11.40
2018-10-04T02:57:14.616Z,9.40
2018-10-04T02:58:14.617Z,11.50
2018-10-04T02:59:14.610Z,8.60
2018-10-04T03:00:14.600Z,12.10
2018-10-04T03:01:14.601Z,9.30
2018-10-04T03:02:14.590Z,12.50
2018-10-04T03:03:14.579Z,12.10
2018-10-04T03:04:14.571Z,9.70
2018-10-04T03:05:14.567Z,9.40
2018-10-04T03:06:14.565Z,9.30
2018-10-04T03:07:14.556Z,13.60
2018-10-04T03:08:14.550Z,11.40
2018-10-04T03:09:14.543Z,12.50
2018-10-04T03:10:14.539Z,11.40
2018-10-04T03:11:14.529Z,11.70
2018-10-04T03:12:14.523Z,10.90
2018-10-04T03:13:14.513Z,12.30
2018-10-04T03:14:14.512Z,10.70
2018-10-04T03:15:14.505Z,9.90
2018-10-04T03:16:14.505Z,9.50
2018-10-04T03:17:14.494Z,11.10
2018-10-04T03:18:14.485Z,11.90
2018-10-04T03:19:14.477Z,10.80
2018-10-04T03:20:14.487Z,12.20
2018-10-04T03:21:14.499Z,12.30
2018-10-04T03:22:14.466Z,10.10
2018-10-04T03:23:14.468Z,11.50
2018-10-04T03:24:14.449Z,9.80
2018-10-04T03:25:14.444Z,9.20
2018-10-04T03:26:14.440Z,8.90
2018-10-04T03:27:14.423Z,10.10
2018-10-04T03:28:14.420Z,9.90
2018-10-04T03:29:14.411Z,11.40
2018-10-04T03:30:14.498Z,9.80
2018-10-04T03:31:14.416Z,10.90
2018-10-04T03:32:14.397Z,8.10
2018-10-04T03:33:14.384Z,12.00
2018-10-04T03:34:14.384Z,9.80
2018-10-04T03:35:14.374Z,7.90
2018-10-04T03:36:14.367Z,12.70
2018-10-04T03:37:14.361Z,9.10
2018-10-04T03:38:14.354Z,11.60
2018-10-04T03:39:14.349Z,11.50
2018-10-04T03:40:14.344Z,12.50
2018-10-04T03:41:14.337Z,9.70
2018-10-04T03:42:14.328Z,7.00
2018-10-04T03:43:14.324Z,9.30
2018-10-04T03:44:14.380Z,10.60
2018-10-04T03:45:14.310Z,8.10
2018-10-04T03:46:14.303Z,10.00
2018-10-04T03:47:14.298Z,8.20
2018-10-04T03:48:14.292Z,9.90
2018-10-04T03:49:14.283Z,7.30
2018-10-04T03:50:14.278Z,8.60
2018-10-04T03:51:14.276Z,9.70
2018-10-04T03:52:14.280Z,10.20
2018-10-04T03:53:14.257Z,12.50
2018-10-04T03:54:14.248Z,12.40
2018-10-04T03:55:14.247Z,12.90
2018-10-04T03:56:14.244Z,14.20
2018-10-04T03:57:14.231Z,13.60
2018-10-04T03:58:14.225Z,9.60
2018-10-04T03:59:14.219Z,12.40
2018-10-04T04:00:14.214Z,10.80
2018-10-04T04:01:14.206Z,12.30
2018-10-04T04:02:14.199Z,12.20
2018-10-04T04:03:14.192Z,12.20
2018-10-04T04:04:14.190Z,14.00
2018-10-04T04:05:14.179Z,12.60
2018-10-04T04:06:14.171Z,14.00
2018-10-04T04:07:14.164Z,10.00
2018-10-04T04:08:14.157Z,13.90
2018-10-04T04:09:14.152Z,12.80
2018-10-04T04:10:14.146Z,10.90
2018-10-04T04:11:14.140Z,12.60
2018-10-04T04:12:14.154Z,12.50
2018-10-04T04:13:14.126Z,10.90
2018-10-04T04:14:14.118Z,13.00
2018-10-04T04:15:14.126Z,14.10
2018-10-04T04:16:14.110Z,12.60
2018-10-04T04:17:14.100Z,14.20
2018-10-04T04:18:14.101Z,12.00
2018-10-04T04:19:14.090Z,12.20
2018-10-04T04:20:14.084Z,12.50
2018-10-04T04:21:14.069Z,12.60
2018-10-04T04:22:14.071Z,12.20
2018-10-04T04:23:14.055Z,13.50
2018-10-04T04:24:14.055Z,11.10
2018-10-04T04:25:14.122Z,13.50
2018-10-04T04:26:14.044Z,10.90
2018-10-04T04:27:14.032Z,10.70
2018-10-04T04:28:14.027Z,8.80
2018-10-04T04:29:14.017Z,13.10
2018-10-04T04:30:14.013Z,13.30
2018-10-04T04:31:14.010Z,11.10
2018-10-04T04:32:14.002Z,11.50
2018-10-04T04:33:13.991Z,9.90
2018-10-04T04:34:13.984Z,11.40
2018-10-04T04:35:13.991Z,10.70
2018-10-04T04:36:13.971Z,14.60
2018-10-04T04:37:13.966Z,12.60
2018-10-04T04:38:13.961Z,11.60
2018-10-04T04:39:13.953Z,12.90
2018-10-04T04:40:13.949Z,10.70
2018-10-04T04:41:13.942Z,10.50
2018-10-04T04:42:13.939Z,11.90
2018-10-04T04:43:13.928Z,15.80
2018-10-04T04:44:13.918Z,13.20
2018-10-04T04:45:13.912Z,10.00
2018-10-04T04:46:13.908Z,13.70
2018-10-04T04:47:14.012Z,12.00
2018-10-04T04:48:13.896Z,13.30
2018-10-04T04:49:13.888Z,13.10
2018-10-04T04:50:13.878Z,14.20
2018-10-04T04:51:13.884Z,12.90
2018-10-04T04:52:13.866Z,12.60
2018-10-04T04:53:13.862Z,14.20
2018-10-04T04:54:13.854Z,12.20
2018-10-04T04:55:13.843Z,11.40
2018-10-04T04:56:13.841Z,14.50
2018-10-04T04:57:13.833Z,14.00
2018-10-04T04:58:13.830Z,11.70
2018-10-04T04:59:13.819Z,12.00
2018-10-04T05:00:13.815Z,13.70
2018-10-04T05:01:13.804Z,14.80
2018-10-04T05:02:13.804Z,10.00
2018-10-04T05:03:13.797Z,12.70
2018-10-04T05:04:13.789Z,13.70
2018-10-04T05:05:13.782Z,11.80
2018-10-04T05:06:13.835Z,12.00
2018-10-04T05:07:13.769Z,14.80
2018-10-04T05:08:13.761Z,10.70
2018-10-04T05:09:13.756Z,13.70
2018-10-04T05:10:13.751Z,13.40
2018-10-04T05:11:13.741Z,12.00
2018-10-04T05:12:13.740Z,12.30
2018-10-04T05:13:13.735Z,10.20
2018-10-04T05:14:13.721Z,12.10
2018-10-04T05:15:13.714Z,11.70
2018-10-04T05:16:13.712Z,9.80
2018-10-04T05:17:13.703Z,10.60
2018-10-04T05:18:13.696Z,12.90
2018-10-04T05:19:13.691Z,13.10
2018-10-04T05:20:13.686Z,11.10
2018-10-04T05:21:13.674Z,13.40
2018-10-04T05:22:13.712Z,11.40
2018-10-04T05:23:13.666Z,11.70
2018-10-04T05:24:13.657Z,14.10
2018-10-04T05:25:13.655Z,11.10
2018-10-04T05:26:13.652Z,14.00
2018-10-04T05:27:13.640Z,11.00
2018-10-04T05:28:13.630Z,10.00
2018-10-04T05:29:13.624Z,12.20
2018-10-04T05:30:13.616Z,10.50
2018-10-04T05:31:13.614Z,12.70
2018-10-04T05:32:13.607Z,13.70
2018-10-04T05:33:13.603Z,13.70
2018-10-04T05:34:13.612Z,9.30
2018-10-04T05:35:13.597Z,11.40
2018-10-04T05:36:13.583Z,13.60
2018-10-04T05:37:13.671Z,11.70
2018-10-04T05:38:13.575Z,9.60
2018-10-04T05:39:13.566Z,9.80
2018-10-04T05:40:13.559Z,10.90
2018-10-04T05:41:13.619Z,12.40
2018-10-04T05:42:13.544Z,12.00
2018-10-04T05:43:13.543Z,13.60
2018-10-04T05:44:13.641Z,11.80
2018-10-04T05:45:13.553Z,12.60
2018-10-04T05:46:13.525Z,10.90
2018-10-04T05:47:13.523Z,14.90
2018-10-04T05:48:13.509Z,11.20
2018-10-04T05:49:13.504Z,9.00
2018-10-04T05:50:13.501Z,10.70
2018-10-04T05:51:13.499Z,11.90
2018-10-04T05:52:13.489Z,12.10
2018-10-04T05:53:13.544Z,13.40
2018-10-04T05:54:13.479Z,12.90
2018-10-04T05:55:13.469Z,11.30
2018-10-04T05:56:13.462Z,10.40
2018-10-04T05:57:13.460Z,10.00
2018-10-04T05:58:13.451Z,10.90
2018-10-04T05:59:13.498Z,11.30
2018-10-04T06:00:13.445Z,11.70
2018-10-04T06:01:13.435Z,11.40
2018-10-04T06:02:13.431Z,12.20
2018-10-04T06:03:13.421Z,12.80
2018-10-04T06:04:13.422Z,13.80
2018-10-04T06:05:13.462Z,11.60
2018-10-04T06:06:13.405Z,10.70
2018-10-04T06:07:13.401Z,10.40
2018-10-04T06:08:13.392Z,13.70
2018-10-04T06:09:13.398Z,11.40
2018-10-04T06:10:13.387Z,12.20
2018-10-04T06:11:13.389Z,15.80
2018-10-04T06:12:13.369Z,12.60
2018-10-04T06:13:13.932Z,12.10
2018-10-04T06:14:13.357Z,11.70
2018-10-04T06:15:13.441Z,12.50
2018-10-04T06:16:13.349Z,11.70
2018-10-04T06:17:13.355Z,14.20
2018-10-04T06:18:13.339Z,12.80
2018-10-04T06:19:13.332Z,13.90
2018-10-04T06:20:13.321Z,11.50
2018-10-04T06:21:13.320Z,10.00
2018-10-04T06:22:13.318Z,13.40
2018-10-04T06:23:13.310Z,13.40
2018-10-04T06:24:13.321Z,13.80
2018-10-04T06:25:13.297Z,10.60
2018-10-04T06:26:13.300Z,10.00
2018-10-04T06:27:13.283Z,11.20
2018-10-04T06:28:13.284Z,12.40
2018-10-04T06:29:13.272Z,12.00
2018-10-04T06:30:13.274Z,12.80
2018-10-04T06:31:13.313Z,13.40
2018-10-04T06:32:13.259Z,8.70
2018-10-04T06:33:13.252Z,11.20
2018-10-04T06:34:13.253Z,16.30
2018-10-04T06:35:13.342Z,10.10
2018-10-04T06:36:13.255Z,11.00
2018-10-04T06:37:13.233Z,12.50
2018-10-04T06:38:13.248Z,14.20
2018-10-04T06:39:13.227Z,13.20
2018-10-04T06:40:13.267Z,10.50
2018-10-04T06:41:13.285Z,12.40
2018-10-04T06:42:13.203Z,11.50
2018-10-04T06:43:13.202Z,12.80
2018-10-04T06:44:13.204Z,11.00
2018-10-04T06:45:13.190Z,10.40
2018-10-04T06:46:13.186Z,13.60
2018-10-04T06:47:13.183Z,12.70
2018-10-04T06:48:13.181Z,13.50
2018-10-04T06:49:13.171Z,11.70
2018-10-04T06:50:13.226Z,11.00
2018-10-04T06:51:13.165Z,13.80
2018-10-04T06:52:13.154Z,13.20
2018-10-04T06:53:13.146Z,14.00
2018-10-04T06:54:13.139Z,12.10
2018-10-04T06:55:13.138Z,11.20
2018-10-04T06:56:13.134Z,12.30
2018-10-04T06:57:13.133Z,12.10
2018-10-04T06:58:13.182Z,11.90
2018-10-04T06:59:13.120Z,12.70
2018-10-04T07:00:13.114Z,10.90
2018-10-04T07:01:13.111Z,12.20
2018-10-04T07:02:13.103Z,13.60
2018-10-04T07:03:13.103Z,9.90
2018-10-04T07:04:13.094Z,13.10
2018-10-04T07:05:13.088Z,12.30
2018-10-04T07:06:13.083Z,11.90
2018-10-04T07:07:13.077Z,11.10
2018-10-04T07:08:13.076Z,12.60
2018-10-04T07:09:13.068Z,11.20
2018-10-04T07:10:13.132Z,13.90
2018-10-04T07:11:13.058Z,10.10
2018-10-04T07:12:13.059Z,12.30
2018-10-04T07:13:13.055Z,12.40
2018-10-04T07:14:13.046Z,14.00
2018-10-04T07:15:13.046Z,12.00
2018-10-04T07:16:13.033Z,10.80
2018-10-04T07:17:13.034Z,13.60
2018-10-04T07:18:13.036Z,10.70
2018-10-04T07:19:13.023Z,12.20
2018-10-04T07:20:13.069Z,11.20
2018-10-04T07:21:13.009Z,12.00
2018-10-04T07:22:13.006Z,12.40
2018-10-04T07:23:13.002Z,11.40
2018-10-04T07:24:13.001Z,9.20
2018-10-04T07:25:12.993Z,11.40
2018-10-04T07:26:12.991Z,14.20
2018-10-04T07:27:12.993Z,13.50
2018-10-04T07:28:12.982Z,15.40
2018-10-04T07:29:12.979Z,11.90
2018-10-04T07:30:12.970Z,14.90
2018-10-04T07:31:12.972Z,10.60
2018-10-04T07:32:12.974Z,13.00
2018-10-04T07:33:12.963Z,15.20
2018-10-04T07:34:12.960Z,11.20
2018-10-04T07:35:12.954Z,12.90
2018-10-04T07:36:12.953Z,11.20
2018-10-04T07:37:12.980Z,10.80
2018-10-04T07:38:12.936Z,10.20
2018-10-04T07:39:12.935Z,11.30
2018-10-04T07:40:12.933Z,12.30
2018-10-04T07:41:12.927Z,14.40
2018-10-04T07:42:13.010Z,13.20
2018-10-04T07:43:12.921Z,11.60
2018-10-04T07:44:12.917Z,11.60
2018-10-04T07:45:12.915Z,12.90
2018-10-04T07:46:12.952Z,11.50
2018-10-04T07:47:12.900Z,10.20
2018-10-04T07:48:12.895Z,11.00
2018-10-04T07:49:12.901Z,14.30
2018-10-04T07:50:12.995Z,10.80
2018-10-04T07:51:12.888Z,15.80
2018-10-04T07:52:12.884Z,14.70
2018-10-04T07:53:12.876Z,12.70
2018-10-04T07:54:12.875Z,12.60
2018-10-04T07:55:12.881Z,10.30
2018-10-04T07:56:12.872Z,11.50
2018-10-04T07:57:12.862Z,10.00
2018-10-04T07:58:12.883Z,11.10
2018-10-04T07:59:12.854Z,14.00
2018-10-04T08:00:12.938Z,11.70
2018-10-04T08:01:12.847Z,12.40
2018-10-04T08:02:12.877Z,11.90
2018-10-04T08:03:12.888Z,13.40
2018-10-04T08:04:12.848Z,11.10
2018-10-04T08:05:12.843Z,12.40
2018-10-04T08:06:12.940Z,11.90
2018-10-04T08:07:12.832Z,9.40
2018-10-04T08:08:12.824Z,12.30
2018-10-04T08:09:12.820Z,13.80
2018-10-04T08:10:12.821Z,11.00
2018-10-04T08:11:12.814Z,14.20
2018-10-04T08:12:12.815Z,8.90
2018-10-04T08:13:12.809Z,10.50
2018-10-04T08:14:12.806Z,11.80
2018-10-04T08:15:12.855Z,13.30
2018-10-04T08:16:12.806Z,12.60
2018-10-04T08:17:12.818Z,12.30
2018-10-04T08:18:12.795Z,13.60
2018-10-04T08:19:12.792Z,13.30
2018-10-04T08:20:13.732Z,11.00
2018-10-04T08:21:12.851Z,12.90
2018-10-04T08:22:12.779Z,13.20
2018-10-04T08:23:12.777Z,13.20
2018-10-04T08:24:12.775Z,12.70
2018-10-04T08:25:12.773Z,13.00
2018-10-04T08:26:12.775Z,12.30
2018-10-04T08:27:12.772Z,12.30
2018-10-04T08:28:12.763Z,14.00
2018-10-04T08:29:12.760Z,13.20
2018-10-04T08:30:12.755Z,12.50
2018-10-04T08:31:12.753Z,13.00
2018-10-04T08:32:12.754Z,11.10
2018-10-04T08:33:12.746Z,10.80
2018-10-04T08:34:12.744Z,13.20
2018-10-04T08:35:12.962Z,13.50
2018-10-04T08:36:12.741Z,11.50
2018-10-04T08:37:12.734Z,13.10
2018-10-04T08:38:12.734Z,12.60
2018-10-04T08:39:12.727Z,14.40
2018-10-04T08:40:12.727Z,13.30
2018-10-04T08:41:12.725Z,10.60
2018-10-04T08:42:12.845Z,11.40
2018-10-04T08:43:12.718Z,11.40
2018-10-04T08:44:12.715Z,15.20
2018-10-04T08:45:12.720Z,13.10
2018-10-04T08:46:12.710Z,12.10
2018-10-04T08:47:12.717Z,13.20
2018-10-04T08:48:12.770Z,9.70
2018-10-04T08:49:12.703Z,8.60
2018-10-04T08:50:12.699Z,12.30
2018-10-04T08:51:12.695Z,11.10
2018-10-04T08:52:12.713Z,12.10
2018-10-04T08:53:12.691Z,13.40
2018-10-04T08:54:12.741Z,11.90
2018-10-04T08:55:12.692Z,11.00
2018-10-04T08:56:12.690Z,13.00
2018-10-04T08:57:12.682Z,11.80
2018-10-04T08:58:12.683Z,11.30
2018-10-04T08:59:12.679Z,10.00
2018-10-04T09:00:12.671Z,14.10
2018-10-04T09:01:12.678Z,11.60
2018-10-04T09:02:12.666Z,12.90
2018-10-04T09:03:12.668Z,10.80
2018-10-04T09:04:12.671Z,13.20
2018-10-04T09:05:12.671Z,11.50
2018-10-04T09:06:12.657Z,11.20
2018-10-04T09:07:12.673Z,14.30
2018-10-04T09:08:12.656Z,12.10
2018-10-04T09:09:12.657Z,14.40
2018-10-04T09:10:12.653Z,11.20
2018-10-04T09:11:12.653Z,11.90
2018-10-04T09:12:12.700Z,11.80
2018-10-04T09:13:12.654Z,12.60
2018-10-04T09:14:12.637Z,13.10
2018-10-04T09:15:12.648Z,13.10
2018-10-04T09:16:12.635Z,11.10
2018-10-04T09:17:12.638Z,12.00
2018-10-04T09:18:12.630Z,11.70
2018-10-04T09:19:12.630Z,11.70
2018-10-04T09:20:12.629Z,11.40
2018-10-04T09:21:12.691Z,11.70
2018-10-04T09:22:12.620Z,12.20
2018-10-04T09:23:12.615Z,12.80
2018-10-04T09:24:12.616Z,11.70
2018-10-04T09:25:13.172Z,14.40
2018-10-04T09:26:13.302Z,13.70
2018-10-04T09:27:12.605Z,11.50
2018-10-04T09:28:12.622Z,12.80
2018-10-04T09:29:12.602Z,11.80
2018-10-04T09:30:12.602Z,13.20
2018-10-04T09:31:12.602Z,12.70
2018-10-04T09:32:13.313Z,11.90
2018-10-04T09:33:12.595Z,16.40
2018-10-04T09:34:12.604Z,12.70
2018-10-04T09:35:12.595Z,12.60
2018-10-04T09:36:12.589Z,12.10
2018-10-04T09:37:12.600Z,12.20
2018-10-04T09:38:12.583Z,12.00
2018-10-04T09:39:12.582Z,12.30
2018-10-04T09:40:12.581Z,11.70
2018-10-04T09:41:12.608Z,11.90
2018-10-04T09:42:12.575Z,13.30
2018-10-04T09:43:12.574Z,11.70
2018-10-04T09:44:12.568Z,8.80
2018-10-04T09:45:12.599Z,12.70
2018-10-04T09:46:12.576Z,14.20
2018-10-04T09:47:12.561Z,12.30
2018-10-04T09:48:12.560Z,12.60
2018-10-04T09:49:12.564Z,13.90
2018-10-04T09:50:12.560Z,12.00
2018-10-04T09:51:12.556Z,14.20
2018-10-04T09:52:12.557Z,12.50
2018-10-04T09:53:12.550Z,11.60
2018-10-04T09:54:12.599Z,15.10
2018-10-04T09:55:12.563Z,14.60
2018-10-04T09:56:12.549Z,13.70
2018-10-04T09:57:12.542Z,12.10
2018-10-04T09:58:12.547Z,11.50
2018-10-04T09:59:12.536Z,13.70
2018-10-04T10:00:12.535Z,14.10
2018-10-04T10:01:12.539Z,13.50
2018-10-04T10:02:12.536Z,15.80
2018-10-04T10:03:12.533Z,15.90
2018-10-04T10:04:12.535Z,17.70
2018-10-04T10:05:12.528Z,16.70
2018-10-04T10:06:12.528Z,16.60
2018-10-04T10:07:12.523Z,13.70
2018-10-04T10:08:12.523Z,16.60
2018-10-04T10:09:12.517Z,14.30
2018-10-04T10:10:12.516Z,12.50
2018-10-04T10:11:12.514Z,15.80
2018-10-04T10:12:12.513Z,14.30
2018-10-04T10:13:12.509Z,13.60
2018-10-04T10:14:12.505Z,16.10
2018-10-04T10:15:13.381Z,15.80
2018-10-04T10:16:12.504Z,16.90
2018-10-04T10:17:12.499Z,16.90
2018-10-04T10:18:12.503Z,14.50
2018-10-04T10:19:12.496Z,15.40
2018-10-04T10:20:12.571Z,14.50
2018-10-04T10:21:12.489Z,15.30
2018-10-04T10:22:12.485Z,15.20
2018-10-04T10:23:12.486Z,14.70
2018-10-04T10:24:12.486Z,15.70
2018-10-04T10:25:12.482Z,12.70
2018-10-04T10:26:12.513Z,12.80
2018-10-04T10:27:12.489Z,11.60
2018-10-04T10:28:12.475Z,15.30
2018-10-04T10:29:12.476Z,17.60
2018-10-04T10:30:12.471Z,12.70
2018-10-04T10:31:12.469Z,13.30
2018-10-04T10:32:12.467Z,13.80
2018-10-04T10:33:12.458Z,15.00
2018-10-04T10:34:12.472Z,13.40
2018-10-04T10:35:12.459Z,12.80
2018-10-04T10:36:12.458Z,12.60
2018-10-04T10:37:12.456Z,13.60
2018-10-04T10:38:12.450Z,11.80
2018-10-04T10:39:12.451Z,15.50
2018-10-04T10:40:12.524Z,10.70
2018-10-04T10:41:12.445Z,11.70
2018-10-04T10:42:12.453Z,13.80
2018-10-04T10:43:12.458Z,15.70
2018-10-04T10:44:12.448Z,12.40
2018-10-04T10:45:12.435Z,13.60
2018-10-04T10:46:12.434Z,12.70
2018-10-04T10:47:12.436Z,12.70
2018-10-04T10:48:12.431Z,14.40
2018-10-04T10:49:12.430Z,12.80
2018-10-04T10:50:12.435Z,14.70
2018-10-04T10:51:12.433Z,11.90
2018-10-04T10:52:12.427Z,15.00
2018-10-04T10:53:13.290Z,12.00
2018-10-04T10:54:12.425Z,13.10
2018-10-04T10:55:12.425Z,12.30
2018-10-04T10:56:12.419Z,17.60
2018-10-04T10:57:12.417Z,11.80
2018-10-04T10:58:12.419Z,14.20
2018-10-04T10:59:12.412Z,12.70
2018-10-04T11:00:12.417Z,12.60
2018-10-04T11:01:12.472Z,15.60
2018-10-04T11:02:12.405Z,13.10
2018-10-04T11:03:12.404Z,12.90
2018-10-04T11:04:12.404Z,12.30
2018-10-04T11:05:12.401Z,13.40
2018-10-04T11:06:12.397Z,14.10
2018-10-04T11:07:12.397Z,9.00
2018-10-04T11:08:12.402Z,11.50
2018-10-04T11:09:12.391Z,13.90
2018-10-04T11:10:12.387Z,12.70
2018-10-04T11:11:12.433Z,12.00
2018-10-04T11:12:12.389Z,14.20
2018-10-04T11:13:12.382Z,13.30
2018-10-04T11:14:12.377Z,14.10
2018-10-04T11:15:12.385Z,12.70
2018-10-04T11:16:12.387Z,10.60
2018-10-04T11:17:12.453Z,10.80
2018-10-04T11:18:12.382Z,13.20
2018-10-04T11:19:12.372Z,15.40
2018-10-04T11:20:12.369Z,11.40
2018-10-04T11:21:12.367Z,14.90
2018-10-04T11:22:12.363Z,11.80
2018-10-04T11:23:12.418Z,11.40
2018-10-04T11:24:12.368Z,12.90
2018-10-04T11:25:12.359Z,13.30
2018-10-04T11:26:12.352Z,16.90
2018-10-04T11:27:12.355Z,13.10
2018-10-04T11:28:12.351Z,13.80
2018-10-04T11:29:12.351Z,12.70
2018-10-04T11:30:12.347Z,11.90
2018-10-04T11:31:12.346Z,13.10
2018-10-04T11:32:12.339Z,11.60
2018-10-04T11:33:12.413Z,10.30
2018-10-04T11:34:12.351Z,12.30
2018-10-04T11:35:12.334Z,13.40
2018-10-04T11:36:12.388Z,15.40
2018-10-04T11:37:12.333Z,12.30
2018-10-04T11:38:12.333Z,12.40
2018-10-04T11:39:12.340Z,11.20
2018-10-04T11:40:12.336Z,15.30
2018-10-04T11:41:12.327Z,13.10
2018-10-04T11:42:12.325Z,14.40
2018-10-04T11:43:12.323Z,12.50
2018-10-04T11:44:12.316Z,13.20
2018-10-04T11:45:12.321Z,12.10
2018-10-04T11:46:12.319Z,12.30
2018-10-04T11:47:12.315Z,13.30
2018-10-04T11:48:12.309Z,13.30
2018-10-04T11:49:12.309Z,14.30
2018-10-04T11:50:12.307Z,10.80
2018-10-04T11:51:12.304Z,13.60
2018-10-04T11:52:12.312Z,11.80
2018-10-04T11:53:12.313Z,10.40
2018-10-04T11:54:12.302Z,10.80
2018-10-04T11:55:12.303Z,11.50
2018-10-04T11:56:12.295Z,13.90
2018-10-04T11:57:12.296Z,12.70
2018-10-04T11:58:12.299Z,9.60
2018-10-04T11:59:12.298Z,10.90
2018-10-04T12:00:12.291Z,11.20
2018-10-04T12:01:12.363Z,12.00
2018-10-04T12:02:12.295Z,13.20
2018-10-04T12:03:12.289Z,12.20
2018-10-04T12:04:12.286Z,12.20
2018-10-04T12:05:12.284Z,11.60
2018-10-04T12:06:12.281Z,10.70
2018-10-04T12:07:12.352Z,11.10
2018-10-04T12:08:12.281Z,12.30
2018-10-04T12:09:12.276Z,12.00
2018-10-04T12:10:12.285Z,12.30
2018-10-04T12:11:12.282Z,12.10
2018-10-04T12:12:12.277Z,12.20
2018-10-04T12:13:12.834Z,11.70
2018-10-04T12:14:12.275Z,12.60
2018-10-04T12:15:12.274Z,11.30
2018-10-04T12:16:12.274Z,11.90
2018-10-04T12:17:12.284Z,13.00
2018-10-04T12:18:12.265Z,10.40
2018-10-04T12:19:12.308Z,11.20
2018-10-04T12:20:12.265Z,11.60
2018-10-04T12:21:12.298Z,12.20
2018-10-04T12:22:12.262Z,9.50
2018-10-04T12:23:12.260Z,13.20
2018-10-04T12:24:12.261Z,11.40
2018-10-04T12:25:12.309Z,11.80
2018-10-04T12:26:12.260Z,12.20
2018-10-04T12:27:12.253Z,10.50
2018-10-04T12:28:12.258Z,11.00
2018-10-04T12:29:12.280Z,10.70
2018-10-04T12:30:12.253Z,11.60
2018-10-04T12:31:12.281Z,9.60
2018-10-04T12:32:12.251Z,12.20
2018-10-04T12:33:12.253Z,11.50
2018-10-04T12:34:12.244Z,10.30
2018-10-04T12:35:12.244Z,12.50
2018-10-04T12:36:12.368Z,11.60
2018-10-04T12:37:12.240Z,12.70
2018-10-04T12:38:12.238Z,10.90
2018-10-04T12:39:12.240Z,11.80
2018-10-04T12:40:12.246Z,10.80
2018-10-04T12:41:12.238Z,11.70
2018-10-04T12:42:12.243Z,11.10
2018-10-04T12:43:12.242Z,11.20
2018-10-04T12:44:12.324Z,8.70
2018-10-04T12:45:12.233Z,12.60
2018-10-04T12:46:12.232Z,10.70
2018-10-04T12:47:12.231Z,10.20
2018-10-04T12:48:12.231Z,12.10
2018-10-04T12:49:12.226Z,11.50
2018-10-04T12:50:12.231Z,12.00
2018-10-04T12:51:12.229Z,11.70
2018-10-04T12:52:12.226Z,11.20
2018-10-04T12:53:12.223Z,12.20
2018-10-04T12:54:12.238Z,10.60
2018-10-04T12:55:12.227Z,10.90
2018-10-04T12:56:12.222Z,11.30
2018-10-04T12:57:12.222Z,10.70
2018-10-04T12:58:12.219Z,11.80
2018-10-04T12:59:12.218Z,11.10